Time;durP1;ratioP1;P1;durP2;ratioP2;P2;SDS_P1;SDS_P2;PMS_P1;PMS_P2;Temp;Humidity;BMP_temperature;BMP_pressure;BME280_temperature;BME280_humidity;BME280_pressure;Samples;Min_cycle;Max_cycle;Signal;HPM_P1;HPM_P2
2023/01/29 00:00:21;;;;;;;0.60;0.60;;;;;;;3.89;100.00;99557.13;5050233;28;20687;-66
2023/01/29 00:02:48;;;;;;;0.60;0.60;;;;;;;3.89;100.00;99562.19;5053652;28;20668;-66
2023/01/29 00:05:15;;;;;;;0.70;0.70;;;;;;;3.89;100.00;99561.34;5053171;28;20217;-66
2023/01/29 00:07:43;;;;;;;0.60;0.60;;;;;;;3.91;100.00;99560.50;5053603;28;20197;-66
2023/01/29 00:10:12;;;;;;;0.50;0.50;;;;;;;3.89;100.00;99561.34;5052780;28;20664;-66
2023/01/29 00:12:38;;;;;;;0.50;0.50;;;;;;;3.88;100.00;99560.50;5051988;28;20207;-65
2023/01/29 00:15:06;;;;;;;0.40;0.40;;;;;;;3.84;100.00;99561.38;5052778;28;20197;-66
2023/01/29 00:17:33;;;;;;;0.50;0.50;;;;;;;3.87;100.00;99563.91;5053228;28;20208;-66
2023/01/29 00:20:00;;;;;;;0.50;0.50;;;;;;;3.89;100.00;99571.50;5052912;28;20200;-66
2023/01/29 00:22:27;;;;;;;2.13;1.47;;;;;;;3.86;100.00;99572.34;5053117;28;20204;-66
2023/01/29 00:24:55;;;;;;;0.70;0.70;;;;;;;3.87;100.00;99573.19;5053035;28;20220;-66
2023/01/29 00:27:22;;;;;;;0.50;0.50;;;;;;;3.89;100.00;99577.41;5052979;28;20642;-65
2023/01/29 00:30:07;;;;;;;0.70;0.70;;;;;;;3.88;100.00;99572.38;5052492;28;20205;-66
2023/01/29 00:32:34;;;;;;;0.60;0.60;;;;;;;3.89;100.00;99577.41;5053052;28;20200;-66
2023/01/29 00:35:01;;;;;;;0.50;0.50;;;;;;;3.87;100.00;99581.66;5052909;28;20189;-66
2023/01/29 00:37:28;;;;;;;0.43;0.43;;;;;;;3.84;100.00;99589.28;5052338;28;20197;-66
2023/01/29 00:39:57;;;;;;;0.50;0.50;;;;;;;3.84;100.00;99583.34;5052871;28;20201;-66
2023/01/29 00:45:09;;;;;;;0.53;0.53;;;;;;;3.80;100.00;99581.66;5053063;28;20215;-66
2023/01/29 00:47:35;;;;;;;0.50;0.50;;;;;;;3.86;100.00;99595.16;5052397;28;20205;-66
2023/01/29 00:50:05;;;;;;;0.77;0.77;;;;;;;3.70;100.00;99573.19;5052540;28;20204;-66
2023/01/29 00:52:32;;;;;;;0.60;0.60;;;;;;;3.78;100.00;99584.16;5051248;28;20196;-66
2023/01/29 00:55:01;;;;;;;0.63;0.63;;;;;;;3.81;100.00;99591.81;5050788;28;20201;-66
2023/01/29 00:57:29;;;;;;;0.70;0.70;;;;;;;3.72;100.00;99583.34;5051853;28;20193;-66
2023/01/29 00:59:57;;;;;;;0.60;0.60;;;;;;;3.81;100.00;99596.88;5051336;28;20280;-65
2023/01/29 01:05:15;;;;;;;0.50;0.50;;;;;;;3.80;100.00;99591.78;5051555;28;20228;-66
2023/01/29 01:07:42;;;;;;;0.67;0.67;;;;;;;3.81;100.00;99588.41;5052102;28;20203;-65
2023/01/29 01:10:21;;;;;;;0.73;0.73;;;;;;;3.82;100.00;99596.00;5050597;28;20215;-66
2023/01/29 01:12:52;;;;;;;0.60;0.60;;;;;;;3.83;100.00;99600.25;5051829;28;20205;-66
2023/01/29 01:15:20;;;;;;;0.50;0.50;;;;;;;3.81;100.00;99598.56;5052006;28;20205;-66
2023/01/29 01:17:47;;;;;;;0.60;0.60;;;;;;;3.77;100.00;99596.88;5050916;28;20205;-65
2023/01/29 01:20:15;;;;;;;0.50;0.50;;;;;;;3.78;100.00;99593.50;5050708;28;20200;-65
2023/01/29 01:22:42;;;;;;;0.63;0.63;;;;;;;3.77;100.00;99597.72;5049497;28;20197;-65
2023/01/29 01:25:10;;;;;;;0.50;0.50;;;;;;;3.80;100.00;99592.63;5051881;28;20209;-66
2023/01/29 01:27:39;;;;;;;0.60;0.60;;;;;;;3.81;100.00;99599.41;5051709;28;20707;-65
2023/01/29 01:30:09;;;;;;;0.50;0.50;;;;;;;3.76;100.00;99585.03;5052385;28;20197;-66
2023/01/29 01:32:36;;;;;;;0.57;0.57;;;;;;;3.74;100.00;99587.56;5051126;28;20201;-66
2023/01/29 01:35:03;;;;;;;0.60;0.60;;;;;;;3.75;100.00;99584.16;5049217;28;20208;-65
2023/01/29 01:37:30;;;;;;;0.53;0.53;;;;;;;3.84;100.00;99606.16;5051759;28;21014;-66
2023/01/29 01:39:57;;;;;;;0.60;0.60;;;;;;;3.81;100.00;99591.81;5051637;28;20664;-66
2023/01/29 01:42:30;;;;;;;0.60;0.60;;;;;;;3.80;100.00;99597.72;5050657;28;20200;-66
2023/01/29 01:45:03;;;;;;;0.50;0.50;;;;;;;3.72;100.00;99578.28;5051640;28;20316;-66
2023/01/29 01:47:37;;;;;;;0.60;0.60;;;;;;;3.84;100.00;99603.63;5051592;28;20283;-66
2023/01/29 01:50:10;;;;;;;0.60;0.60;;;;;;;3.82;100.00;99596.00;5051472;28;20211;-66
2023/01/29 01:52:42;;;;;;;0.50;0.50;;;;;;;3.86;100.00;99595.16;5051550;28;20259;-66
2023/01/29 01:55:13;;;;;;;0.60;0.60;;;;;;;3.82;100.00;99601.09;5049822;28;20201;-66
2023/01/29 01:57:45;;;;;;;0.50;0.50;;;;;;;3.83;100.00;99605.31;5051396;28;20224;-65
2023/01/29 02:00:16;;;;;;;0.90;0.90;;;;;;;3.84;100.00;99604.47;5051116;28;20601;-66
2023/01/29 02:11:08;;;;;;;0.70;0.70;;;;;;;3.78;100.00;99608.69;5051149;28;20199;-66
2023/01/29 02:13:37;;;;;;;0.73;0.73;;;;;;;3.81;100.00;99614.63;5046704;28;20197;-66
2023/01/29 02:16:04;;;;;;;0.80;0.80;;;;;;;3.78;100.00;99607.00;5051173;28;20192;-66
2023/01/29 02:18:36;;;;;;;0.50;0.50;;;;;;;3.75;100.00;99599.38;5049963;28;20665;-66
2023/01/29 02:21:27;;;;;;;0.60;0.60;;;;;;;3.80;100.00;99620.53;5050702;28;20196;-66
2023/01/29 02:24:11;;;;;;;0.50;0.50;;;;;;;3.79;100.00;99618.84;5050989;28;20644;-66
2023/01/29 02:26:53;;;;;;;0.80;0.80;;;;;;;3.64;100.00;99606.16;5050757;28;20726;-66
2023/01/29 02:29:32;;;;;;;0.53;0.53;;;;;;;3.82;100.00;99631.50;5050515;28;20193;-66
2023/01/29 02:32:09;;;;;;;0.60;0.60;;;;;;;3.83;100.00;99623.06;5050445;28;20645;-66
2023/01/29 02:37:38;;;;;;;0.50;0.50;;;;;;;3.81;100.00;99629.84;5050326;28;20246;-66
2023/01/29 02:40:17;;;;;;;0.50;0.50;;;;;;;3.83;100.00;99638.28;5050846;28;20196;-66
2023/01/29 02:42:52;;;;;;;0.60;0.60;;;;;;;3.85;100.00;99636.56;5049767;28;20212;-66
2023/01/29 02:45:26;;;;;;;0.67;0.67;;;;;;;3.90;100.00;99629.84;5050413;28;20208;-66
2023/01/29 02:47:58;;;;;;;0.70;0.70;;;;;;;3.88;100.00;99621.38;5050779;28;20203;-66
2023/01/29 02:50:28;;;;;;;0.50;0.50;;;;;;;3.89;100.00;99635.75;5050449;28;20273;-65
2023/01/29 02:52:59;;;;;;;0.60;0.60;;;;;;;3.90;100.00;99629.84;5047780;28;20201;-66
2023/01/29 02:55:33;;;;;;;0.60;0.60;;;;;;;3.92;100.00;99633.22;5047815;28;20255;-65
2023/01/29 02:58:05;;;;;;;0.97;0.97;;;;;;;3.93;100.00;99641.66;5050731;28;20197;-66
2023/01/29 03:00:38;;;;;;;0.60;0.60;;;;;;;3.94;100.00;99641.66;5049936;28;20200;-66
2023/01/29 03:03:10;;;;;;;0.57;0.57;;;;;;;3.97;100.00;99636.59;5050345;28;20643;-66
2023/01/29 03:05:49;;;;;;;0.60;0.60;;;;;;;3.96;100.00;99639.13;5049233;28;20600;-66
2023/01/29 03:08:21;;;;;;;0.70;0.70;;;;;;;3.93;100.00;99637.44;5050635;28;20623;-66
2023/01/29 03:10:53;;;;;;;0.50;0.50;;;;;;;3.95;100.00;99642.50;5050125;28;20197;-66
2023/01/29 03:13:29;;;;;;;0.60;0.60;;;;;;;3.94;100.00;99641.66;5050344;28;20196;-66
2023/01/29 03:16:06;;;;;;;1.03;1.03;;;;;;;3.92;100.00;99648.41;5053688;28;20619;-66
2023/01/29 03:18:40;;;;;;;1.20;1.20;;;;;;;3.91;100.00;99650.97;5054444;28;20192;-66
2023/01/29 03:32:12;;;;;;;0.57;0.57;;;;;;;3.88;100.00;99661.94;5053948;28;20254;-66
2023/01/29 03:34:44;;;;;;;0.43;0.43;;;;;;;3.86;100.00;99668.72;5054256;28;20200;-66
2023/01/29 03:37:17;;;;;;;0.50;0.50;;;;;;;3.84;100.00;99660.25;5053804;28;20242;-66
2023/01/29 03:39:44;;;;;;;0.70;0.70;;;;;;;3.83;100.00;99665.31;5052417;28;20203;-65
2023/01/29 03:42:18;;;;;;;0.50;0.50;;;;;;;3.80;100.00;99662.78;5053765;28;20208;-66
2023/01/29 03:44:54;;;;;;;0.50;0.50;;;;;;;3.76;100.00;99659.41;5053734;28;20200;-65
2023/01/29 03:47:27;;;;;;;0.60;0.60;;;;;;;3.79;100.00;99666.16;5054167;28;20642;-66
2023/01/29 03:49:59;;;;;;;0.50;0.50;;;;;;;3.81;100.00;99667.03;5053940;28;20254;-65
2023/01/29 03:52:33;;;;;;;0.57;0.57;;;;;;;3.82;100.00;99672.06;5051290;28;20246;-66
2023/01/29 03:55:09;;;;;;;0.60;0.60;;;;;;;3.81;100.00;99674.63;5053512;28;20668;-66
2023/01/29 03:57:40;;;;;;;0.60;0.60;;;;;;;3.78;100.00;99680.50;5053462;28;20200;-66
2023/01/29 04:00:14;;;;;;;0.50;0.50;;;;;;;3.73;100.00;99674.59;5053656;28;20255;-66
2023/01/29 04:02:49;;;;;;;0.40;0.40;;;;;;;3.79;100.00;99676.28;5053454;28;20232;-66
2023/01/29 04:05:20;;;;;;;0.43;0.43;;;;;;;3.81;100.00;99684.78;5053427;28;20561;-66
2023/01/29 04:07:52;;;;;;;0.50;0.50;;;;;;;3.80;100.00;99683.91;5053323;28;20201;-66
2023/01/29 04:10:24;;;;;;;0.50;0.50;;;;;;;3.87;100.00;99690.69;5053368;28;20251;-66
2023/01/29 04:12:57;;;;;;;0.50;0.50;;;;;;;3.88;100.00;99692.38;5052983;28;20201;-66
2023/01/29 04:15:28;;;;;;;0.50;0.50;;;;;;;3.95;100.00;99704.22;5052258;28;20223;-65
2023/01/29 04:17:57;;;;;;;0.57;0.57;;;;;;;4.00;100.00;99697.47;5051176;28;20634;-66
2023/01/29 04:20:24;;;;;;;0.53;0.53;;;;;;;4.06;100.00;99699.16;5052813;28;20196;-66
2023/01/29 04:22:52;;;;;;;0.60;0.60;;;;;;;4.05;100.00;99705.91;5053444;28;20196;-66
2023/01/29 04:25:25;;;;;;;0.50;0.50;;;;;;;4.03;100.00;99702.56;5052746;28;20196;-66
2023/01/29 04:28:00;;;;;;;0.60;0.60;;;;;;;4.10;100.00;99698.31;5051396;28;20204;-66
2023/01/29 04:30:37;;;;;;;0.50;0.50;;;;;;;4.09;100.00;99712.69;5053061;28;20311;-66
2023/01/29 04:33:17;;;;;;;0.50;0.50;;;;;;;4.14;100.00;99707.59;5052205;28;20687;-66
2023/01/29 04:36:04;;;;;;;0.50;0.50;;;;;;;4.12;100.00;99717.78;5049711;28;20657;-66
2023/01/29 04:38:47;;;;;;;0.50;0.50;;;;;;;4.11;100.00;99718.59;5052827;28;20233;-66
2023/01/29 04:41:20;;;;;;;0.70;0.70;;;;;;;3.98;100.00;99709.28;5052591;28;20696;-66
2023/01/29 04:43:59;;;;;;;0.60;0.60;;;;;;;3.88;100.00;99707.59;5052994;28;20197;-66
2023/01/29 04:46:31;;;;;;;0.60;0.60;;;;;;;3.78;100.00;99705.88;5049676;28;20818;-65
2023/01/29 04:49:10;;;;;;;0.50;0.50;;;;;;;3.79;100.00;99717.72;5052833;28;20692;-65
2023/01/29 04:51:47;;;;;;;0.53;0.53;;;;;;;3.76;100.00;99717.72;5051993;28;20654;-66
2023/01/29 04:54:20;;;;;;;0.50;0.50;;;;;;;3.69;100.00;99721.91;5052718;28;20660;-66
2023/01/29 04:56:53;;;;;;;0.60;0.60;;;;;;;3.67;100.00;99727.84;5052602;28;20189;-66
2023/01/29 04:59:27;;;;;;;0.60;0.60;;;;;;;3.67;100.00;99722.75;5052191;28;20193;-66
2023/01/29 05:01:54;;;;;;;0.50;0.50;;;;;;;3.66;100.00;99731.19;5052328;28;20195;-66
2023/01/29 05:04:24;;;;;;;0.60;0.60;;;;;;;3.66;100.00;99726.13;5051651;28;20236;-66
2023/01/29 05:06:53;;;;;;;0.50;0.50;;;;;;;3.65;100.00;99729.53;5051817;28;20274;-66
2023/01/29 05:09:20;;;;;;;0.60;0.60;;;;;;;3.61;100.00;99722.75;5051242;28;20266;-65
2023/01/29 05:11:48;;;;;;;0.40;0.40;;;;;;;3.62;100.00;99730.34;5052349;28;20201;-66
2023/01/29 05:14:19;;;;;;;0.63;0.63;;;;;;;3.63;100.00;99729.50;5052510;28;20200;-66
2023/01/29 05:16:49;;;;;;;0.50;0.50;;;;;;;3.65;100.00;99734.59;5052126;28;20761;-65
2023/01/29 05:19:17;;;;;;;0.50;0.50;;;;;;;3.64;100.00;99738.81;5048864;28;20204;-66
2023/01/29 05:21:47;;;;;;;0.60;0.60;;;;;;;3.67;100.00;99727.84;5051937;28;20554;-66
2023/01/29 05:24:17;;;;;;;0.50;0.50;;;;;;;3.73;100.00;99738.00;5052035;28;20200;-66
2023/01/29 05:29:29;;;;;;;0.50;0.50;;;;;;;3.85;100.00;99737.16;5046552;28;20270;-66
2023/01/29 05:31:56;;;;;;;0.50;0.50;;;;;;;3.85;100.00;99743.09;5050280;28;20734;-66
2023/01/29 05:34:22;;;;;;;0.50;0.50;;;;;;;3.85;100.00;99745.63;5050594;28;20205;-66
2023/01/29 05:36:50;;;;;;;0.50;0.50;;;;;;;3.85;100.00;99748.16;5051481;28;20193;-66
2023/01/29 05:39:17;;;;;;;0.60;0.60;;;;;;;3.85;100.00;99755.75;5051605;28;20673;-65
2023/01/29 05:41:44;;;;;;;0.60;0.60;;;;;;;3.86;100.00;99754.94;5047160;28;20684;-65
2023/01/29 05:44:11;;;;;;;0.60;0.60;;;;;;;3.83;100.00;99752.38;5051813;28;20204;-66
2023/01/29 05:46:39;;;;;;;0.40;0.40;;;;;;;3.84;100.00;99750.69;5051609;28;20781;-66
2023/01/29 05:49:06;;;;;;;0.53;0.53;;;;;;;3.81;100.00;99760.84;5048859;28;20209;-65
2023/01/29 05:51:33;;;;;;;0.50;0.50;;;;;;;3.77;100.00;99759.97;5051559;28;20223;-66
2023/01/29 05:54:01;;;;;;;0.97;0.97;;;;;;;3.70;100.00;99763.34;5051394;28;20577;-66
2023/01/29 05:56:28;;;;;;;0.60;0.60;;;;;;;3.68;100.00;99765.03;5045902;28;20671;-66
2023/01/29 05:58:55;;;;;;;0.60;0.60;;;;;;;3.67;100.00;99770.94;5044919;28;20200;-66
2023/01/29 06:01:24;;;;;;;0.57;0.57;;;;;;;3.64;100.00;99771.78;5047697;28;20213;-66
2023/01/29 06:03:51;;;;;;;0.53;0.53;;;;;;;3.63;100.00;99767.53;5048307;28;20580;-66
2023/01/29 06:06:18;;;;;;;0.70;0.70;;;;;;;3.65;100.00;99775.16;5050979;28;20270;-65
2023/01/29 06:08:44;;;;;;;0.60;0.60;;;;;;;3.63;100.00;99774.28;5051107;28;20672;-65
2023/01/29 06:11:15;;;;;;;0.50;0.50;;;;;;;3.62;100.00;99775.13;5050152;28;20576;-66
2023/01/29 06:13:42;;;;;;;0.53;0.53;;;;;;;3.66;100.00;99771.75;5051172;28;20554;-66
2023/01/29 06:16:10;;;;;;;0.60;0.60;;;;;;;3.68;100.00;99778.53;5050076;28;20200;-65
2023/01/29 06:18:37;;;;;;;0.70;0.70;;;;;;;3.60;100.00;99781.88;5051034;28;20228;-65
2023/01/29 06:21:05;;;;;;;0.60;0.60;;;;;;;3.61;100.00;99784.44;5050835;28;20201;-65
2023/01/29 06:23:33;;;;;;;0.60;0.60;;;;;;;3.64;100.00;99786.13;5048972;28;20200;-66
2023/01/29 06:26:00;;;;;;;0.50;0.50;;;;;;;3.67;100.00;99786.16;5050102;28;20689;-66
2023/01/29 06:28:29;;;;;;;0.60;0.60;;;;;;;3.70;100.00;99789.53;5050090;28;20196;-66
2023/01/29 06:30:58;;;;;;;0.60;0.60;;;;;;;3.75;100.00;99797.16;5050932;28;20201;-65
2023/01/29 06:33:26;;;;;;;0.60;0.60;;;;;;;3.78;100.00;99794.63;5050244;28;20224;-65
2023/01/29 06:35:57;;;;;;;0.50;0.50;;;;;;;3.82;100.00;99808.16;5048137;28;20207;-65
2023/01/29 06:38:27;;;;;;;0.60;0.60;;;;;;;3.85;100.00;99803.94;5050669;28;20625;-65
2023/01/29 06:40:55;;;;;;;0.50;0.50;;;;;;;3.87;100.00;99806.50;5050166;28;20193;-66
2023/01/29 06:43:22;;;;;;;0.60;0.60;;;;;;;3.95;100.00;99815.81;5049530;28;20201;-66
2023/01/29 06:45:52;;;;;;;0.50;0.50;;;;;;;4.00;100.00;99810.78;5050881;28;20298;-65
2023/01/29 06:48:20;;;;;;;0.67;0.67;;;;;;;4.03;100.00;99819.22;5049884;28;20250;-65
2023/01/29 06:50:48;;;;;;;0.50;0.50;;;;;;;3.99;100.00;99804.00;5049093;28;20203;-66
2023/01/29 06:53:15;;;;;;;0.50;0.50;;;;;;;4.14;100.00;99816.69;5050551;28;20193;-66
2023/01/29 06:55:42;;;;;;;1.70;1.60;;;;;;;4.18;100.00;99814.19;5050423;28;20197;-66
2023/01/29 06:58:12;;;;;;;0.50;0.50;;;;;;;4.19;100.00;99818.44;5047530;28;20207;-66
2023/01/29 07:00:39;;;;;;;0.60;0.60;;;;;;;4.21;100.00;99819.25;5044456;28;20212;-66
2023/01/29 07:03:10;;;;;;;0.50;0.50;;;;;;;4.23;100.00;99827.72;5046672;28;20208;-66
2023/01/29 07:05:36;;;;;;;0.50;0.50;;;;;;;4.30;100.00;99825.22;5048359;28;20274;-66
2023/01/29 07:08:03;;;;;;;0.50;0.50;;;;;;;4.33;100.00;99832.84;5048165;28;20251;-66
2023/01/29 07:10:30;;;;;;;0.60;0.60;;;;;;;4.32;100.00;99831.13;5049343;28;20664;-65
2023/01/29 07:12:59;;;;;;;0.50;0.50;;;;;;;4.32;100.00;99837.06;5049120;28;20227;-66
2023/01/29 07:15:26;;;;;;;0.60;0.60;;;;;;;4.39;100.00;99837.91;5047755;28;20196;-66
2023/01/29 07:17:57;;;;;;;0.47;0.47;;;;;;;4.28;100.00;99820.13;5049476;28;20208;-66
2023/01/29 07:20:26;;;;;;;0.60;0.60;;;;;;;4.41;100.00;99841.28;5048479;28;20292;-65
2023/01/29 07:22:53;;;;;;;0.50;0.50;;;;;;;4.51;100.00;99843.84;5048725;28;20258;-65
2023/01/29 07:25:19;;;;;;;0.90;0.90;;;;;;;4.52;100.00;99849.78;5048002;28;20208;-66
2023/01/29 07:27:47;;;;;;;0.50;0.50;;;;;;;4.57;100.00;99848.09;5046495;28;20224;-65
2023/01/29 07:30:14;;;;;;;0.50;0.50;;;;;;;4.53;100.00;99846.38;5048156;28;20250;-66
2023/01/29 07:32:41;;;;;;;0.50;0.50;;;;;;;4.64;100.00;99854.88;5049577;28;20197;-66
2023/01/29 07:35:09;;;;;;;0.50;0.50;;;;;;;4.69;100.00;99848.09;5049541;28;20654;-66
2023/01/29 07:37:37;;;;;;;0.50;0.50;;;;;;;4.74;100.00;99846.41;5046623;28;20231;-66
2023/01/29 07:40:10;;;;;;;0.60;0.60;;;;;;;4.67;100.00;99837.09;5048462;28;20207;-66
2023/01/29 07:42:37;;;;;;;2.37;1.07;;;;;;;4.83;100.00;99841.34;5048631;28;20250;-66
2023/01/29 07:45:04;;;;;;;0.60;0.60;;;;;;;4.86;100.00;99841.31;5049146;28;20205;-66
2023/01/29 07:47:31;;;;;;;0.57;0.57;;;;;;;4.87;100.00;99843.03;5047089;28;20223;-66
2023/01/29 07:50:00;;;;;;;0.50;0.50;;;;;;;4.86;100.00;99841.31;5046629;28;20201;-65
2023/01/29 07:52:29;;;;;;;0.60;0.60;;;;;;;4.81;100.00;99842.19;5049670;28;20580;-66
2023/01/29 07:54:58;;;;;;;0.70;0.70;;;;;;;4.84;100.00;99848.13;5047425;28;20201;-65
2023/01/29 07:57:25;;;;;;;0.50;0.50;;;;;;;4.84;100.00;99850.66;5048676;28;20258;-66
2023/01/29 07:59:52;;;;;;;0.50;0.50;;;;;;;4.82;100.00;99848.94;5047852;28;20702;-65
2023/01/29 08:02:18;;;;;;;0.50;0.50;;;;;;;4.84;100.00;99853.19;5052576;28;20220;-66
2023/01/29 08:04:45;;;;;;;0.60;0.60;;;;;;;4.88;100.00;99854.03;5051974;28;20228;-65
2023/01/29 08:07:12;;;;;;;0.50;0.50;;;;;;;4.95;100.00;99855.72;5049560;28;20228;-65
2023/01/29 08:09:38;;;;;;;0.97;0.97;;;;;;;5.00;100.00;99859.97;5052223;28;20205;-66
2023/01/29 08:12:07;;;;;;;0.60;0.60;;;;;;;5.13;100.00;99871.81;5047966;28;20204;-65
2023/01/29 08:14:34;;;;;;;0.50;0.50;;;;;;;5.16;100.00;99866.72;5049800;28;20197;-66
2023/01/29 08:17:00;;;;;;;0.47;0.47;;;;;;;5.16;100.00;99866.72;5047747;28;20811;-65
2023/01/29 08:19:27;;;;;;;0.90;0.90;;;;;;;5.14;100.00;99868.41;5050218;28;20201;-65
2023/01/29 08:21:54;;;;;;;0.57;0.57;;;;;;;5.00;100.00;99865.03;5050008;28;20204;-66
2023/01/29 08:24:21;;;;;;;0.47;0.47;;;;;;;5.01;100.00;99864.19;5047717;28;20209;-66
2023/01/29 08:26:47;;;;;;;0.57;0.57;;;;;;;5.10;100.00;99871.81;5050504;28;20616;-66
2023/01/29 08:29:16;;;;;;;1.90;1.80;;;;;;;5.16;100.00;99876.91;5049281;28;20197;-65
2023/01/29 08:31:42;;;;;;;0.40;0.40;;;;;;;5.23;100.00;99873.47;5048049;28;20262;-66
2023/01/29 08:34:09;;;;;;;0.60;0.60;;;;;;;5.36;100.00;99868.41;5048317;28;20202;-66
2023/01/29 08:36:36;;;;;;;0.50;0.50;;;;;;;5.40;100.00;99875.13;5049597;28;20660;-66
2023/01/29 08:39:03;;;;;;;0.40;0.40;;;;;;;5.40;100.00;99875.13;5049113;28;20205;-66
2023/01/29 08:41:30;;;;;;;0.70;0.70;;;;;;;5.37;100.00;99876.00;5050172;28;20216;-66
2023/01/29 08:43:59;;;;;;;0.60;0.60;;;;;;;5.45;100.00;99879.41;5051803;28;20204;-66
2023/01/29 08:46:27;;;;;;;0.53;0.53;;;;;;;5.44;100.00;99882.78;5047893;28;20205;-66
2023/01/29 08:48:54;;;;;;;0.40;0.40;;;;;;;5.42;100.00;99883.63;5051076;28;20216;-66
2023/01/29 08:51:21;;;;;;;0.50;0.50;;;;;;;5.43;100.00;99880.25;5049576;28;20220;-65
2023/01/29 08:53:48;;;;;;;0.50;0.50;;;;;;;5.47;100.00;99887.84;5050596;28;20212;-66
2023/01/29 08:56:16;;;;;;;0.70;0.70;;;;;;;5.47;100.00;99892.09;5049408;28;20550;-66
2023/01/29 08:58:43;;;;;;;1.13;1.13;;;;;;;5.39;100.00;99870.94;5045606;28;20283;-66
2023/01/29 09:01:12;;;;;;;0.43;0.43;;;;;;;5.54;100.00;99883.59;5048127;28;20252;-66
2023/01/29 09:03:42;;;;;;;0.60;0.60;;;;;;;5.51;100.00;99860.72;5046895;28;20208;-66
2023/01/29 09:06:10;;;;;;;0.50;0.50;;;;;;;5.64;100.00;99882.72;5048870;28;20205;-66
2023/01/29 09:08:37;;;;;;;0.93;0.93;;;;;;;5.65;100.00;99887.84;5048139;28;20224;-66
2023/01/29 09:11:04;;;;;;;0.70;0.70;;;;;;;5.62;100.00;99874.28;5050182;28;20255;-66
2023/01/29 09:13:30;;;;;;;0.50;0.50;;;;;;;5.69;100.00;99883.56;5046422;28;20244;-66
2023/01/29 09:15:59;;;;;;;0.40;0.40;;;;;;;5.81;100.00;99884.38;5048053;28;20204;-66
2023/01/29 09:18:26;;;;;;;0.40;0.40;;;;;;;5.88;100.00;99887.75;5049237;28;20558;-66
2023/01/29 09:20:54;;;;;;;0.50;0.50;;;;;;;5.88;100.00;99880.13;5048833;28;20550;-66
2023/01/29 09:23:21;;;;;;;0.50;0.50;;;;;;;5.87;100.00;99880.16;5048595;28;20668;-66
2023/01/29 09:25:48;;;;;;;0.77;0.77;;;;;;;5.89;100.00;99881.81;5047705;28;20726;-66
2023/01/29 09:28:16;;;;;;;0.73;0.73;;;;;;;5.86;100.00;99876.75;5046823;28;20221;-66
2023/01/29 09:30:43;;;;;;;0.60;0.60;;;;;;;5.78;100.00;99858.09;5048907;28;20672;-66
2023/01/29 09:33:10;;;;;;;0.70;0.70;;;;;;;5.86;100.00;99876.75;5050133;28;20201;-66
2023/01/29 09:35:36;;;;;;;0.50;0.50;;;;;;;5.96;100.00;99880.09;5050927;28;20212;-66
2023/01/29 09:38:05;;;;;;;1.77;1.77;;;;;;;5.96;100.00;99888.59;5047516;28;20561;-66
2023/01/29 09:40:38;;;;;;;0.80;0.80;;;;;;;5.94;100.00;99869.94;5048214;28;20258;-66
2023/01/29 09:43:10;;;;;;;1.13;1.13;;;;;;;6.01;100.00;99871.59;5044015;28;20198;-66
2023/01/29 09:45:44;;;;;;;0.60;0.60;;;;;;;6.05;100.00;99870.75;5044397;28;20258;-66
2023/01/29 09:48:12;;;;;;;0.50;0.50;;;;;;;6.07;100.00;99866.50;5046189;28;20282;-66
2023/01/29 09:50:41;;;;;;;0.50;0.50;;;;;;;6.08;100.00;99863.09;5048133;28;20201;-60
2023/01/29 09:53:17;;;;;;;0.60;0.60;;;;;;;6.19;100.00;99861.34;5048248;28;20263;-60
2023/01/29 09:55:49;;;;;;;0.50;0.50;;;;;;;6.22;100.00;99866.41;5046519;28;20215;-60
2023/01/29 09:58:22;;;;;;;0.50;0.50;;;;;;;6.28;100.00;99858.75;5046949;28;20204;-60
2023/01/29 10:00:58;;;;;;;0.40;0.40;;;;;;;6.38;100.00;99858.69;5047669;28;20592;-59
2023/01/29 10:03:50;;;;;;;0.50;0.50;;;;;;;6.43;100.00;99860.34;5048421;28;20197;-60
2023/01/29 10:06:28;;;;;;;0.60;0.60;;;;;;;6.44;100.00;99864.59;5045788;28;20684;-59
2023/01/29 10:09:16;;;;;;;2.17;2.07;;;;;;;6.49;100.00;99859.47;5048225;28;20223;-60
2023/01/29 10:11:53;;;;;;;0.73;0.73;;;;;;;6.55;100.00;99854.34;5049658;28;20673;-59
2023/01/29 10:14:30;;;;;;;0.90;0.90;;;;;;;6.53;100.00;99843.31;5048784;28;20208;-60
2023/01/29 10:17:12;;;;;;;0.70;0.70;;;;;;;6.46;100.00;99844.22;5048487;28;20333;-59
2023/01/29 10:19:53;;;;;;;1.57;1.53;;;;;;;6.55;100.00;99855.19;5048485;28;20623;-61
2023/01/29 10:22:54;;;;;;;0.60;0.60;;;;;;;6.61;100.00;99841.56;5049073;28;20204;-60
2023/01/29 10:25:23;;;;;;;0.40;0.40;;;;;;;6.50;100.00;99825.50;5049591;28;20208;-60
2023/01/29 10:27:53;;;;;;;0.73;0.73;;;;;;;6.58;100.00;99826.28;5049678;28;20217;-60
2023/01/29 10:30:28;;;;;;;0.40;0.40;;;;;;;6.60;100.00;99827.13;5049936;28;20204;-60
2023/01/29 10:32:56;;;;;;;1.03;1.03;;;;;;;6.53;100.00;99823.78;5049178;28;20281;-60
2023/01/29 10:35:28;;;;;;;1.13;1.03;;;;;;;6.53;100.00;99817.81;5047700;28;20205;-60
2023/01/29 10:37:56;;;;;;;0.60;0.60;;;;;;;6.56;100.00;99810.19;5048590;28;20587;-60
2023/01/29 10:40:32;;;;;;;0.80;0.80;;;;;;;6.62;100.00;99815.25;5049879;28;20208;-60
2023/01/29 10:43:06;;;;;;;0.50;0.50;;;;;;;6.50;100.00;99795.78;5049460;28;20693;-60
2023/01/29 10:45:42;;;;;;;0.87;0.87;;;;;;;6.62;100.00;99812.69;5048395;28;20208;-59
2023/01/29 10:48:48;;;;;;;0.60;0.60;;;;;;;6.70;100.00;99810.91;5046532;28;20227;-60
2023/01/29 10:51:28;;;;;;;0.60;0.60;;;;;;;6.74;100.00;99804.94;5045285;28;20313;-60
2023/01/29 10:54:05;;;;;;;0.50;0.50;;;;;;;6.83;100.00;99795.53;5049938;28;20196;-59
2023/01/29 10:56:51;;;;;;;0.50;0.50;;;;;;;6.98;100.00;99799.63;5046512;28;20216;-60
2023/01/29 10:59:35;;;;;;;0.50;0.50;;;;;;;7.01;100.00;99799.59;5043716;28;20262;-60
2023/01/29 11:02:02;;;;;;;0.50;0.50;;;;;;;7.08;100.00;99801.22;5048510;28;20228;-60
2023/01/29 11:04:31;;;;;;;0.63;0.63;;;;;;;7.01;98.75;99797.03;5049375;28;20604;-60
2023/01/29 11:07:00;;;;;;;0.50;0.50;;;;;;;6.99;98.67;99795.38;5045096;28;20665;-60
2023/01/29 11:09:32;;;;;;;0.40;0.40;;;;;;;6.97;99.38;99787.75;5049014;28;20225;-60
2023/01/29 11:12:04;;;;;;;0.70;0.70;;;;;;;7.00;100.00;99779.22;5047739;28;20200;-60
2023/01/29 11:14:45;;;;;;;0.50;0.50;;;;;;;7.07;99.56;99783.41;5050376;28;20223;-60
2023/01/29 11:17:16;;;;;;;0.63;0.63;;;;;;;6.98;98.05;99771.56;5046712;28;20230;-61
2023/01/29 11:19:45;;;;;;;0.43;0.43;;;;;;;7.12;98.29;99781.66;5047980;28;20239;-60
2023/01/29 11:22:14;;;;;;;0.60;0.60;;;;;;;7.23;97.63;99785.78;5046161;28;20201;-60
2023/01/29 11:24:41;;;;;;;0.60;0.60;;;;;;;7.18;97.02;99769.69;5049473;28;20262;-60
2023/01/29 11:27:22;;;;;;;0.70;0.70;;;;;;;7.14;97.83;99783.31;5045477;28;20199;-60
2023/01/29 11:29:49;;;;;;;0.50;0.50;;;;;;;7.07;99.24;99771.50;5039499;28;20229;-60
2023/01/29 11:32:26;;;;;;;0.45;0.45;;;;;;;7.20;97.78;99770.53;5043063;28;20443;-62
2023/01/29 11:34:58;;;;;;;0.60;0.60;;;;;;;7.39;96.45;99766.06;5045171;28;20439;-58
2023/01/29 11:37:32;;;;;;;0.53;0.53;;;;;;;7.38;97.04;99760.09;5052471;28;20208;-59
2023/01/29 11:39:59;;;;;;;0.70;0.70;;;;;;;7.35;94.87;99754.19;5052914;28;20196;-58
2023/01/29 11:42:32;;;;;;;0.40;0.40;;;;;;;7.39;95.83;99750.75;5052579;28;20200;-58
2023/01/29 11:44:59;;;;;;;0.43;0.43;;;;;;;7.48;96.76;99752.34;5050917;28;20609;-58
2023/01/29 11:47:28;;;;;;;0.40;0.40;;;;;;;7.53;95.88;99753.16;5053157;28;20707;-58
2023/01/29 11:49:57;;;;;;;0.50;0.50;;;;;;;7.48;94.48;99752.34;5052603;28;20688;-58
2023/01/29 11:52:26;;;;;;;0.40;0.40;;;;;;;7.32;96.21;99739.78;5048063;28;20600;-58
2023/01/29 11:54:56;;;;;;;0.50;0.50;;;;;;;7.32;95.77;99747.44;5050118;28;20205;-58
2023/01/29 11:57:33;;;;;;;5.03;0.90;;;;;;;7.34;95.37;99743.16;5050313;28;20204;-58
2023/01/29 12:00:05;;;;;;;0.50;0.50;;;;;;;7.25;94.90;99747.50;5051627;28;20208;-58
2023/01/29 12:02:37;;;;;;;0.50;0.50;;;;;;;7.20;93.86;99747.59;5048165;28;20719;-58
2023/01/29 12:05:13;;;;;;;0.50;0.50;;;;;;;7.24;93.56;99746.66;5048346;28;20228;-58
2023/01/29 12:07:42;;;;;;;0.50;0.50;;;;;;;7.21;93.77;99746.69;5050909;28;20208;-58
2023/01/29 12:10:30;;;;;;;0.43;0.43;;;;;;;7.16;93.92;99743.38;5052428;28;20251;-58
2023/01/29 12:13:07;;;;;;;0.50;0.50;;;;;;;7.11;93.62;99732.34;5053273;28;20237;-58
2023/01/29 12:15:34;;;;;;;0.40;0.40;;;;;;;7.15;94.10;99731.47;5053644;28;20215;-58
2023/01/29 12:18:08;;;;;;;0.60;0.60;;;;;;;7.14;94.54;99714.47;5053610;28;20197;-58
2023/01/29 12:20:50;;;;;;;0.70;0.70;;;;;;;7.16;94.48;99728.06;5053543;28;20278;-58